createdAt,value
2017-10-15T00:00:11.371Z,990.33
2017-10-15T00:01:11.273Z,990.35
2017-10-15T00:03:04.038Z,990.33
2017-10-15T00:04:03.921Z,990.35
2017-10-15T00:05:56.662Z,990.35
2017-10-15T00:06:56.584Z,990.38
2017-10-15T00:08:49.414Z,990.36
2017-10-15T00:09:49.252Z,990.36
2017-10-15T00:11:42.034Z,990.37
2017-10-15T00:12:41.903Z,990.38
2017-10-15T00:14:34.646Z,990.38
2017-10-15T00:15:34.553Z,990.36
2017-10-15T00:17:27.476Z,990.36
2017-10-15T00:18:27.364Z,990.38
2017-10-15T00:20:20.139Z,990.39
2017-10-15T00:21:20.029Z,990.38
2017-10-15T00:23:13.489Z,990.37
2017-10-15T00:24:12.710Z,990.38
2017-10-15T00:26:05.442Z,990.36
2017-10-15T00:27:05.361Z,990.35
2017-10-15T00:28:58.482Z,990.35
2017-10-15T00:29:58.360Z,990.33
2017-10-15T00:31:51.237Z,990.35
2017-10-15T00:32:51.060Z,990.35
2017-10-15T00:34:43.807Z,990.34
2017-10-15T00:35:43.696Z,990.38
2017-10-15T00:37:36.549Z,990.35
2017-10-15T00:38:36.323Z,990.34
2017-10-15T00:40:29.188Z,990.35
2017-10-15T00:41:29.098Z,990.31
2017-10-15T00:43:21.902Z,990.34
2017-10-15T00:44:21.768Z,990.32
2017-10-15T00:46:14.549Z,990.31
2017-10-15T00:47:14.825Z,990.30
2017-10-15T00:49:07.236Z,990.32
2017-10-15T00:50:07.082Z,990.34
2017-10-15T00:51:59.931Z,990.34
2017-10-15T00:52:59.814Z,990.37
2017-10-15T00:54:52.596Z,990.35
2017-10-15T00:55:52.535Z,990.37
2017-10-15T00:57:45.400Z,990.36
2017-10-15T00:58:45.150Z,990.35
2017-10-15T01:00:37.932Z,990.31
2017-10-15T01:01:37.826Z,990.31
2017-10-15T01:03:30.591Z,990.29
2017-10-15T01:04:30.464Z,990.25
2017-10-15T01:06:23.324Z,990.27
2017-10-15T01:07:23.124Z,990.25
2017-10-15T01:09:15.918Z,990.23
2017-10-15T01:10:15.787Z,990.24
2017-10-15T01:12:08.614Z,990.25
2017-10-15T01:13:08.426Z,990.26
2017-10-15T01:15:01.152Z,990.23
2017-10-15T01:16:01.078Z,990.25
2017-10-15T01:17:54.229Z,990.21
2017-10-15T01:18:54.064Z,990.18
2017-10-15T01:20:46.904Z,990.17
2017-10-15T01:21:46.715Z,990.16
2017-10-15T01:23:39.485Z,990.14
2017-10-15T01:24:39.368Z,990.13
2017-10-15T01:26:32.094Z,990.17
2017-10-15T01:27:32.007Z,990.18
2017-10-15T01:29:24.792Z,990.20
2017-10-15T01:30:24.713Z,990.17
2017-10-15T01:32:17.492Z,990.17
2017-10-15T01:33:17.398Z,990.13
2017-10-15T01:35:10.109Z,990.13
2017-10-15T01:36:10.009Z,990.11
2017-10-15T01:38:02.759Z,990.09
2017-10-15T01:39:02.632Z,990.07
2017-10-15T01:40:55.383Z,990.10
2017-10-15T01:41:55.300Z,990.13
2017-10-15T01:43:48.113Z,990.12
2017-10-15T01:44:47.961Z,990.09
2017-10-15T01:46:40.760Z,990.08
2017-10-15T01:47:40.626Z,990.08
2017-10-15T01:49:33.416Z,990.04
2017-10-15T01:50:33.282Z,990.08
2017-10-15T01:52:26.125Z,990.03
2017-10-15T01:53:25.997Z,990.01
2017-10-15T01:55:19.862Z,990.00
2017-10-15T01:56:18.763Z,990.03
2017-10-15T01:58:11.488Z,989.98
2017-10-15T01:59:11.331Z,989.94
2017-10-15T02:01:04.033Z,989.93
2017-10-15T02:02:03.952Z,989.91
2017-10-15T02:03:56.795Z,989.87
2017-10-15T02:04:56.656Z,989.88
2017-10-15T02:06:49.421Z,989.84
2017-10-15T02:07:49.332Z,989.82
2017-10-15T02:09:42.116Z,989.79
2017-10-15T02:10:41.957Z,989.82
2017-10-15T02:12:34.742Z,989.81
2017-10-15T02:13:34.616Z,989.83
2017-10-15T02:15:27.388Z,989.81
2017-10-15T02:16:27.313Z,989.81
2017-10-15T02:18:20.120Z,989.79
2017-10-15T02:19:19.964Z,989.78
2017-10-15T02:21:12.725Z,989.76
2017-10-15T02:22:12.624Z,989.73
2017-10-15T02:24:05.391Z,989.78
2017-10-15T02:25:05.262Z,989.79
2017-10-15T02:26:58.022Z,989.82
2017-10-15T02:27:57.937Z,989.80
2017-10-15T02:29:50.758Z,989.78
2017-10-15T02:30:50.632Z,989.82
2017-10-15T02:32:43.653Z,989.78
2017-10-15T02:33:43.286Z,989.76
2017-10-15T02:35:36.015Z,989.79
2017-10-15T02:36:35.932Z,989.77
2017-10-15T02:38:28.726Z,989.80
2017-10-15T02:39:28.596Z,989.78
2017-10-15T02:41:21.369Z,989.80
2017-10-15T02:42:21.311Z,989.78
2017-10-15T02:44:14.151Z,989.77
2017-10-15T02:45:13.976Z,989.75
2017-10-15T02:47:06.712Z,989.77
2017-10-15T02:48:06.571Z,989.81
2017-10-15T02:49:59.338Z,989.77
2017-10-15T02:50:59.241Z,989.77
2017-10-15T02:52:52.059Z,989.78
2017-10-15T02:53:51.916Z,989.76
2017-10-15T02:55:44.747Z,989.79
2017-10-15T02:56:44.589Z,989.79
2017-10-15T02:58:37.457Z,989.76
2017-10-15T02:59:37.295Z,989.75
2017-10-15T03:01:30.002Z,989.77
2017-10-15T03:02:29.916Z,989.79
2017-10-15T03:04:22.700Z,989.80
2017-10-15T03:05:22.600Z,989.79
2017-10-15T03:07:15.361Z,989.76
2017-10-15T03:08:15.318Z,989.77
2017-10-15T03:10:07.983Z,989.80
2017-10-15T03:11:07.876Z,989.78
2017-10-15T03:13:00.652Z,989.80
2017-10-15T03:14:00.520Z,989.80
2017-10-15T03:15:53.290Z,989.81
2017-10-15T03:16:53.183Z,989.82
2017-10-15T03:18:45.976Z,989.79
2017-10-15T03:19:45.839Z,989.83
2017-10-15T03:21:38.574Z,989.80
2017-10-15T03:22:38.490Z,989.81
2017-10-15T03:24:31.250Z,989.81
2017-10-15T03:25:31.122Z,989.84
2017-10-15T03:27:23.988Z,989.82
2017-10-15T03:28:23.871Z,989.80
2017-10-15T03:30:16.721Z,989.86
2017-10-15T03:31:16.535Z,989.84
2017-10-15T03:33:09.289Z,989.84
2017-10-15T03:34:09.153Z,989.79
2017-10-15T03:36:01.939Z,989.78
2017-10-15T03:37:01.867Z,989.81
2017-10-15T03:38:54.938Z,989.82
2017-10-15T03:39:54.790Z,989.79
2017-10-15T03:41:47.653Z,989.81
2017-10-15T03:42:47.469Z,989.80
2017-10-15T03:44:40.234Z,989.81
2017-10-15T03:45:40.079Z,989.79
2017-10-15T03:47:33.352Z,989.79
2017-10-15T03:48:33.222Z,989.78
2017-10-15T03:50:25.985Z,989.82
2017-10-15T03:51:25.895Z,989.80
2017-10-15T03:53:18.840Z,989.83
2017-10-15T03:54:18.641Z,989.80
2017-10-15T03:56:11.383Z,989.82
2017-10-15T03:57:11.249Z,989.84
2017-10-15T03:59:04.019Z,989.80
2017-10-15T04:00:03.889Z,989.83
2017-10-15T04:01:57.109Z,989.84
2017-10-15T04:02:57.026Z,989.83
2017-10-15T04:04:49.829Z,989.89
2017-10-15T04:05:49.702Z,989.84
2017-10-15T04:07:42.470Z,989.89
2017-10-15T04:08:42.338Z,989.83
2017-10-15T04:10:35.062Z,989.84
2017-10-15T04:11:34.975Z,989.86
2017-10-15T04:13:27.777Z,989.90
2017-10-15T04:14:27.643Z,989.92
2017-10-15T04:16:20.413Z,989.91
2017-10-15T04:17:20.322Z,989.91
2017-10-15T04:19:13.384Z,989.94
2017-10-15T04:20:12.959Z,989.96
2017-10-15T04:22:05.682Z,989.92
2017-10-15T04:23:05.597Z,989.95
2017-10-15T04:24:58.390Z,989.92
2017-10-15T04:25:58.258Z,989.91
2017-10-15T04:27:51.075Z,989.92
2017-10-15T04:28:50.921Z,989.90
2017-10-15T04:30:43.716Z,989.91
2017-10-15T04:31:43.675Z,989.94
2017-10-15T04:33:36.344Z,989.95
2017-10-15T04:34:36.209Z,989.94
2017-10-15T04:36:28.965Z,989.99
2017-10-15T04:37:28.881Z,989.97
2017-10-15T04:39:21.717Z,989.97
2017-10-15T04:40:21.598Z,989.99
2017-10-15T04:42:14.441Z,989.98
2017-10-15T04:43:14.374Z,989.95
2017-10-15T04:45:06.993Z,989.95
2017-10-15T04:46:06.895Z,989.96
2017-10-15T04:47:59.759Z,989.92
2017-10-15T04:48:59.627Z,989.92
2017-10-15T04:50:52.490Z,989.90
2017-10-15T04:51:52.343Z,989.93
2017-10-15T04:53:45.343Z,989.91
2017-10-15T04:54:44.997Z,989.89
2017-10-15T04:56:37.711Z,989.86
2017-10-15T04:57:37.630Z,989.86
2017-10-15T04:59:30.412Z,989.87
2017-10-15T05:00:30.282Z,989.87
2017-10-15T05:02:23.040Z,989.88
2017-10-15T05:03:22.930Z,989.88
2017-10-15T05:05:15.727Z,989.86
2017-10-15T05:06:15.609Z,989.87
2017-10-15T05:08:08.373Z,989.90
2017-10-15T05:09:08.224Z,989.89
2017-10-15T05:11:01.085Z,989.83
2017-10-15T05:12:01.000Z,989.86
2017-10-15T05:13:53.807Z,989.85
2017-10-15T05:14:53.676Z,989.88
2017-10-15T05:16:46.541Z,989.88
2017-10-15T05:17:46.366Z,989.84
2017-10-15T05:19:39.096Z,989.80
2017-10-15T05:20:38.972Z,989.83
2017-10-15T05:22:31.703Z,989.82
2017-10-15T05:23:31.620Z,989.85
2017-10-15T05:25:24.495Z,989.84
2017-10-15T05:26:24.364Z,989.86
2017-10-15T05:28:17.174Z,989.87
2017-10-15T05:29:17.040Z,989.86
2017-10-15T05:31:09.762Z,989.86
2017-10-15T05:32:09.774Z,989.87
2017-10-15T05:34:02.444Z,989.89
2017-10-15T05:35:02.316Z,989.93
2017-10-15T05:36:55.153Z,989.91
2017-10-15T05:37:55.048Z,989.93
2017-10-15T05:39:47.901Z,989.92
2017-10-15T05:40:47.710Z,989.93
2017-10-15T05:42:40.553Z,989.89
2017-10-15T05:43:40.378Z,989.87
2017-10-15T05:45:33.129Z,989.87
2017-10-15T05:46:32.994Z,989.87
2017-10-15T05:48:25.803Z,989.87
2017-10-15T05:49:25.676Z,989.89
2017-10-15T05:51:18.549Z,989.90
2017-10-15T05:52:18.367Z,989.92
2017-10-15T05:54:11.141Z,989.96
2017-10-15T05:55:10.990Z,989.93
2017-10-15T05:57:04.224Z,989.94
2017-10-15T05:58:04.138Z,989.97
2017-10-15T05:59:56.926Z,990.01
2017-10-15T06:00:56.800Z,989.97
2017-10-15T06:02:49.605Z,989.96
2017-10-15T06:03:49.493Z,990.03
2017-10-15T06:05:42.786Z,990.00
2017-10-15T06:06:42.625Z,990.02
2017-10-15T06:08:35.412Z,990.04
2017-10-15T06:09:35.282Z,990.00
2017-10-15T06:11:28.115Z,990.00
2017-10-15T06:12:28.035Z,990.00
2017-10-15T06:14:20.822Z,990.02
2017-10-15T06:15:20.708Z,990.02
2017-10-15T06:17:13.696Z,990.02
2017-10-15T06:18:13.519Z,990.03
2017-10-15T06:20:06.119Z,990.05
2017-10-15T06:21:05.989Z,990.02
2017-10-15T06:22:58.759Z,990.05
2017-10-15T06:23:58.677Z,990.05
2017-10-15T06:25:51.534Z,990.08
2017-10-15T06:26:51.395Z,990.09
2017-10-15T06:28:44.150Z,990.09
2017-10-15T06:29:44.126Z,990.14
2017-10-15T06:31:36.717Z,990.12
2017-10-15T06:32:36.679Z,990.13
2017-10-15T06:34:30.433Z,990.13
2017-10-15T06:35:30.318Z,990.16
2017-10-15T06:37:23.150Z,990.17
2017-10-15T06:38:22.969Z,990.20
2017-10-15T06:40:15.769Z,990.18
2017-10-15T06:41:15.651Z,990.13
2017-10-15T06:43:08.415Z,990.18
2017-10-15T06:44:08.263Z,990.21
2017-10-15T06:46:01.006Z,990.22
2017-10-15T06:47:00.925Z,990.22
2017-10-15T06:48:53.765Z,990.19
2017-10-15T06:49:53.607Z,990.19
2017-10-15T06:51:46.445Z,990.18
2017-10-15T06:52:46.275Z,990.21
2017-10-15T06:54:39.047Z,990.19
2017-10-15T06:55:38.981Z,990.19
2017-10-15T06:57:31.627Z,990.19
2017-10-15T06:58:31.545Z,990.21
2017-10-15T07:00:24.394Z,990.22
2017-10-15T07:01:24.267Z,990.22
2017-10-15T07:03:17.089Z,990.25
2017-10-15T07:04:16.921Z,990.23
2017-10-15T07:06:09.790Z,990.24
2017-10-15T07:07:09.592Z,990.24
2017-10-15T07:09:02.659Z,990.24
2017-10-15T07:10:02.290Z,990.29
2017-10-15T07:11:55.183Z,990.26
2017-10-15T07:12:54.972Z,990.30
2017-10-15T07:14:47.763Z,990.32
2017-10-15T07:15:47.632Z,990.33
2017-10-15T07:17:40.438Z,990.38
2017-10-15T07:18:40.351Z,990.41
2017-10-15T07:20:33.155Z,990.43
2017-10-15T07:21:33.028Z,990.49
2017-10-15T07:23:25.799Z,990.43
2017-10-15T07:24:25.670Z,990.45
2017-10-15T07:26:18.608Z,990.44
2017-10-15T07:27:18.460Z,990.45
2017-10-15T07:29:11.123Z,990.47
2017-10-15T07:30:10.996Z,990.46
2017-10-15T07:32:03.739Z,990.49
2017-10-15T07:33:04.358Z,990.49
2017-10-15T07:34:56.975Z,990.52
2017-10-15T07:35:56.844Z,990.52
2017-10-15T07:37:49.665Z,990.53
2017-10-15T07:38:49.562Z,990.56
2017-10-15T07:40:42.286Z,990.61
2017-10-15T07:41:42.214Z,990.60
2017-10-15T07:43:34.948Z,990.65
2017-10-15T07:44:34.823Z,990.64
2017-10-15T07:46:27.627Z,990.65
2017-10-15T07:47:27.551Z,990.63
2017-10-15T07:49:20.414Z,990.64
2017-10-15T07:50:20.284Z,990.67
2017-10-15T07:52:13.242Z,990.63
2017-10-15T07:53:12.965Z,990.64
2017-10-15T07:55:05.753Z,990.63
2017-10-15T07:56:05.598Z,990.65
2017-10-15T07:57:58.451Z,990.66
2017-10-15T07:58:58.382Z,990.71
2017-10-15T08:00:51.196Z,990.71
2017-10-15T08:01:51.035Z,990.71
2017-10-15T08:03:43.977Z,990.71
2017-10-15T08:04:43.743Z,990.73
2017-10-15T08:06:36.444Z,990.74
2017-10-15T08:07:36.370Z,990.76
2017-10-15T08:09:29.200Z,990.74
2017-10-15T08:10:29.070Z,990.78
2017-10-15T08:12:21.815Z,990.76
2017-10-15T08:13:21.730Z,990.77
2017-10-15T08:15:14.693Z,990.80
2017-10-15T08:16:15.153Z,990.81
2017-10-15T08:18:07.157Z,990.81
2017-10-15T08:19:07.072Z,990.83
2017-10-15T08:20:59.910Z,990.85
2017-10-15T08:21:59.776Z,990.85
2017-10-15T08:23:52.639Z,990.81
2017-10-15T08:24:52.510Z,990.81
2017-10-15T08:26:45.301Z,990.80
2017-10-15T08:27:45.190Z,990.80
2017-10-15T08:29:37.949Z,990.82
2017-10-15T08:30:37.807Z,990.82
2017-10-15T08:32:30.592Z,990.84
2017-10-15T08:33:30.505Z,990.88
2017-10-15T08:35:23.319Z,990.86
2017-10-15T08:36:23.188Z,990.86
2017-10-15T08:38:16.477Z,990.84
2017-10-15T08:39:16.370Z,990.82
2017-10-15T08:41:09.206Z,990.86
2017-10-15T08:42:08.990Z,990.83
2017-10-15T08:44:01.799Z,990.84
2017-10-15T08:45:01.668Z,990.85
2017-10-15T08:46:55.230Z,990.86
2017-10-15T08:47:55.125Z,990.86
2017-10-15T08:49:47.972Z,990.86
2017-10-15T08:50:47.824Z,990.87
2017-10-15T08:52:40.510Z,990.90
2017-10-15T08:53:40.419Z,990.87
2017-10-15T08:55:33.692Z,990.88
2017-10-15T08:56:33.563Z,990.89
2017-10-15T08:58:26.907Z,990.92
2017-10-15T08:59:26.824Z,990.90
2017-10-15T09:01:19.713Z,990.95
2017-10-15T09:02:19.571Z,990.92
2017-10-15T09:04:12.377Z,990.92
2017-10-15T09:05:12.222Z,990.97
2017-10-15T09:07:04.985Z,990.92
2017-10-15T09:08:04.906Z,990.93
2017-10-15T09:09:57.775Z,990.93
2017-10-15T09:10:57.655Z,990.90
2017-10-15T09:12:50.432Z,990.90
2017-10-15T09:13:50.346Z,990.88
2017-10-15T09:15:43.334Z,990.89
2017-10-15T09:16:43.030Z,990.87
2017-10-15T09:18:35.733Z,990.84
2017-10-15T09:19:35.653Z,990.83
2017-10-15T09:21:28.530Z,990.81
2017-10-15T09:22:28.403Z,990.78
2017-10-15T09:24:21.224Z,990.77
2017-10-15T09:25:21.072Z,990.79
2017-10-15T09:27:13.818Z,990.75
2017-10-15T09:28:13.771Z,990.75
2017-10-15T09:30:16.097Z,990.69
2017-10-15T09:31:06.383Z,990.68
2017-10-15T09:32:06.310Z,990.67
2017-10-15T09:33:06.236Z,990.64
2017-10-15T09:34:06.156Z,990.67
2017-10-15T09:35:06.083Z,990.65
2017-10-15T09:36:06.006Z,990.68
2017-10-15T09:37:05.933Z,990.69
2017-10-15T09:38:05.864Z,990.66
2017-10-15T09:39:05.779Z,990.68
2017-10-15T09:40:05.705Z,990.68
2017-10-15T09:41:05.630Z,990.65
2017-10-15T09:42:05.554Z,990.67
2017-10-15T09:43:05.478Z,990.63
2017-10-15T09:44:05.403Z,990.63
2017-10-15T09:45:05.328Z,990.66
2017-10-15T09:46:05.250Z,990.64
2017-10-15T09:47:05.176Z,990.62
2017-10-15T09:48:05.103Z,990.62
2017-10-15T09:49:05.026Z,990.60
2017-10-15T09:50:04.953Z,990.59
2017-10-15T09:51:04.875Z,990.61
2017-10-15T09:52:04.800Z,990.59
2017-10-15T09:53:04.731Z,990.55
2017-10-15T09:54:04.649Z,990.56
2017-10-15T09:55:04.580Z,990.54
2017-10-15T09:56:04.498Z,990.55
2017-10-15T09:57:04.424Z,990.57
2017-10-15T09:58:04.351Z,990.58
2017-10-15T09:59:04.271Z,990.59
2017-10-15T10:00:04.196Z,990.55
2017-10-15T10:01:04.122Z,990.57
2017-10-15T10:02:04.046Z,990.52
2017-10-15T10:03:03.979Z,990.56
2017-10-15T10:04:03.896Z,990.53
2017-10-15T10:05:03.824Z,990.57
2017-10-15T10:06:03.744Z,990.54
2017-10-15T10:07:03.672Z,990.52
2017-10-15T10:08:03.605Z,990.55
2017-10-15T10:09:03.520Z,990.53
2017-10-15T10:10:03.445Z,990.56
2017-10-15T10:11:03.369Z,990.56
2017-10-15T10:12:03.294Z,990.51
2017-10-15T10:13:03.216Z,990.53
2017-10-15T10:14:03.143Z,990.49
2017-10-15T10:15:03.069Z,990.50
2017-10-15T10:16:02.993Z,990.48
2017-10-15T10:17:02.928Z,990.48
2017-10-15T10:18:02.840Z,990.47
2017-10-15T10:19:02.768Z,990.43
2017-10-15T10:20:02.691Z,990.44
2017-10-15T10:21:02.617Z,990.42
2017-10-15T10:22:02.542Z,990.45
2017-10-15T10:23:02.467Z,990.43
2017-10-15T10:24:02.394Z,990.44
2017-10-15T10:25:02.319Z,990.46
2017-10-15T10:26:02.241Z,990.42
2017-10-15T10:27:02.166Z,990.40
2017-10-15T10:28:02.092Z,990.44
2017-10-15T10:29:02.017Z,990.41
2017-10-15T10:30:01.944Z,990.41
2017-10-15T10:31:01.867Z,990.39
2017-10-15T10:32:01.793Z,990.38
2017-10-15T10:33:01.716Z,990.39
2017-10-15T10:34:01.643Z,990.36
2017-10-15T10:35:01.567Z,990.35
2017-10-15T10:36:01.542Z,990.37
2017-10-15T10:37:01.418Z,990.34
2017-10-15T10:38:01.342Z,990.31
2017-10-15T10:39:01.269Z,990.31
2017-10-15T10:40:01.194Z,990.26
2017-10-15T10:41:01.120Z,990.29
2017-10-15T10:42:01.044Z,990.22
2017-10-15T10:43:00.973Z,990.21
2017-10-15T10:44:00.896Z,990.20
2017-10-15T10:45:00.823Z,990.20
2017-10-15T10:46:00.747Z,990.18
2017-10-15T10:47:00.672Z,990.15
2017-10-15T10:48:00.609Z,990.14
2017-10-15T10:49:00.525Z,990.12
2017-10-15T10:50:00.449Z,990.11
2017-10-15T10:51:00.376Z,990.12
2017-10-15T10:52:00.300Z,990.12
2017-10-15T10:53:00.231Z,990.07
2017-10-15T10:54:00.157Z,990.05
2017-10-15T10:55:00.079Z,990.07
2017-10-15T10:56:00.005Z,990.10
2017-10-15T10:56:59.931Z,990.06
2017-10-15T10:57:59.858Z,990.08
2017-10-15T10:58:59.782Z,990.09
2017-10-15T10:59:59.828Z,990.04
2017-10-15T11:00:59.633Z,990.08
2017-10-15T11:01:59.601Z,990.09
2017-10-15T11:02:59.487Z,990.09
2017-10-15T11:03:59.417Z,990.04
2017-10-15T11:04:59.349Z,990.08
2017-10-15T11:05:59.287Z,990.12
2017-10-15T11:06:59.193Z,990.13
2017-10-15T11:07:59.121Z,990.16
2017-10-15T11:08:59.050Z,990.20
2017-10-15T11:09:58.977Z,990.19
2017-10-15T11:10:58.908Z,990.14
2017-10-15T11:11:58.840Z,990.19
2017-10-15T11:12:58.770Z,990.15
2017-10-15T11:13:58.699Z,990.13
2017-10-15T11:14:58.635Z,990.14
2017-10-15T11:15:58.575Z,990.11
2017-10-15T11:16:58.501Z,990.14
2017-10-15T11:17:58.432Z,990.13
2017-10-15T11:18:58.391Z,990.09
2017-10-15T11:19:58.351Z,990.06
2017-10-15T11:20:58.323Z,990.02
2017-10-15T11:21:58.173Z,989.99
2017-10-15T11:22:58.110Z,990.02
2017-10-15T11:23:58.048Z,990.01
2017-10-15T11:24:57.987Z,989.99
2017-10-15T11:25:57.923Z,990.01
2017-10-15T11:26:57.861Z,989.94
2017-10-15T11:27:57.801Z,989.95
2017-10-15T11:28:57.739Z,989.93
2017-10-15T11:29:57.839Z,989.94
2017-10-15T11:30:57.620Z,989.93
2017-10-15T11:31:57.559Z,989.91
2017-10-15T11:32:57.498Z,989.93
2017-10-15T11:33:57.440Z,989.90
2017-10-15T11:34:57.382Z,989.92
2017-10-15T11:35:57.478Z,989.89
2017-10-15T11:36:57.266Z,989.88
2017-10-15T11:37:57.225Z,989.86
2017-10-15T11:38:57.147Z,989.86
2017-10-15T11:39:57.096Z,989.80
2017-10-15T11:40:57.034Z,989.81
2017-10-15T11:41:56.977Z,989.80
2017-10-15T11:42:56.918Z,989.79
2017-10-15T11:43:56.864Z,989.77
2017-10-15T11:44:56.807Z,989.80
2017-10-15T11:45:56.749Z,989.76
2017-10-15T11:46:56.692Z,989.76
2017-10-15T11:47:56.638Z,989.77
2017-10-15T11:48:56.583Z,989.75
2017-10-15T11:49:56.537Z,989.77
2017-10-15T11:50:56.473Z,989.72
2017-10-15T11:51:56.415Z,989.70
2017-10-15T11:52:56.365Z,989.74
2017-10-15T11:53:56.304Z,989.69
2017-10-15T11:54:56.249Z,989.72
2017-10-15T11:55:56.271Z,989.70
2017-10-15T11:56:56.146Z,989.71
2017-10-15T11:57:56.084Z,989.65
2017-10-15T11:58:56.031Z,989.66
2017-10-15T11:59:55.988Z,989.65
2017-10-15T12:00:56.117Z,989.63
2017-10-15T12:01:55.894Z,989.59
2017-10-15T12:02:55.859Z,989.59
2017-10-15T12:03:55.762Z,989.54
2017-10-15T12:04:55.708Z,989.57
2017-10-15T12:05:55.665Z,989.58
2017-10-15T12:06:55.599Z,989.53
2017-10-15T12:07:55.561Z,989.51
2017-10-15T12:08:55.549Z,989.55
2017-10-15T12:09:55.441Z,989.54
2017-10-15T12:10:55.410Z,989.53
2017-10-15T12:11:55.388Z,989.49
2017-10-15T12:12:55.282Z,989.48
2017-10-15T12:13:55.232Z,989.44
2017-10-15T12:14:55.175Z,989.43
2017-10-15T12:15:55.601Z,989.36
2017-10-15T12:16:55.073Z,989.38
2017-10-15T12:17:55.077Z,989.39
2017-10-15T12:18:54.962Z,989.37
2017-10-15T12:19:54.946Z,989.37
2017-10-15T12:20:54.870Z,989.37
2017-10-15T12:21:54.797Z,989.36
2017-10-15T12:22:54.744Z,989.34
2017-10-15T12:23:54.681Z,989.34
2017-10-15T12:24:54.634Z,989.34
2017-10-15T12:25:54.571Z,989.34
2017-10-15T12:26:54.517Z,989.34
2017-10-15T12:27:54.464Z,989.30
2017-10-15T12:28:54.447Z,989.32
2017-10-15T12:29:54.672Z,989.32
2017-10-15T12:30:54.446Z,989.28
2017-10-15T12:31:54.231Z,989.30
2017-10-15T12:32:54.191Z,989.29
2017-10-15T12:33:54.158Z,989.27
2017-10-15T12:34:54.063Z,989.25
2017-10-15T12:35:54.216Z,989.25
2017-10-15T12:36:54.105Z,989.23
2017-10-15T12:37:53.943Z,989.19
2017-10-15T12:38:53.893Z,989.17
2017-10-15T12:39:53.786Z,989.13
2017-10-15T12:40:53.723Z,989.11
2017-10-15T12:41:53.721Z,989.13
2017-10-15T12:42:53.607Z,989.10
2017-10-15T12:43:53.795Z,989.05
2017-10-15T12:44:53.491Z,989.04
2017-10-15T12:45:53.433Z,989.01
2017-10-15T12:46:53.470Z,989.01
2017-10-15T12:47:53.322Z,989.02
2017-10-15T12:48:53.270Z,989.00
2017-10-15T12:49:53.296Z,988.98
2017-10-15T12:50:53.138Z,988.98
2017-10-15T12:51:53.133Z,988.94
2017-10-15T12:52:53.116Z,988.94
2017-10-15T12:53:52.973Z,988.92
2017-10-15T12:54:52.925Z,988.90
2017-10-15T12:55:52.839Z,988.87
2017-10-15T12:56:52.823Z,988.91
2017-10-15T12:57:52.714Z,988.90
2017-10-15T12:58:52.680Z,988.95
2017-10-15T12:59:52.932Z,988.89
2017-10-15T13:00:52.525Z,988.87
2017-10-15T13:01:53.001Z,988.88
2017-10-15T13:02:52.440Z,988.89
2017-10-15T13:03:52.380Z,988.84
2017-10-15T13:04:52.383Z,988.85
2017-10-15T13:05:52.256Z,988.85
2017-10-15T13:06:52.160Z,988.85
2017-10-15T13:07:52.083Z,988.83
2017-10-15T13:08:52.057Z,988.81
2017-10-15T13:09:51.947Z,988.82
2017-10-15T13:10:51.896Z,988.80
2017-10-15T13:11:51.881Z,988.78
2017-10-15T13:12:51.761Z,988.75
2017-10-15T13:13:51.765Z,988.76
2017-10-15T13:14:51.628Z,988.78
2017-10-15T13:15:51.561Z,988.77
2017-10-15T13:16:51.588Z,988.77
2017-10-15T13:17:51.515Z,988.78
2017-10-15T13:18:51.371Z,988.77
2017-10-15T13:19:51.316Z,988.78
2017-10-15T13:20:51.439Z,988.79
2017-10-15T13:21:51.172Z,988.81
2017-10-15T13:22:51.103Z,988.76
2017-10-15T13:23:51.052Z,988.74
2017-10-15T13:24:51.049Z,988.72
2017-10-15T13:25:51.031Z,988.67
2017-10-15T13:26:50.864Z,988.67
2017-10-15T13:27:50.813Z,988.66
2017-10-15T13:28:50.780Z,988.63
2017-10-15T13:29:50.650Z,988.64
2017-10-15T13:30:50.696Z,988.66
2017-10-15T13:31:50.532Z,988.65
2017-10-15T13:32:50.526Z,988.59
2017-10-15T13:33:50.580Z,988.57
2017-10-15T13:34:50.473Z,988.56
2017-10-15T13:35:50.321Z,988.54
2017-10-15T13:36:50.208Z,988.49
2017-10-15T13:37:50.237Z,988.49
2017-10-15T13:38:50.227Z,988.46
2017-10-15T13:39:50.001Z,988.45
2017-10-15T13:40:50.347Z,988.44
2017-10-15T13:41:50.587Z,988.43
2017-10-15T13:42:50.117Z,988.40
2017-10-15T13:43:50.091Z,988.41
2017-10-15T13:44:49.698Z,988.41
2017-10-15T13:45:49.874Z,988.37
2017-10-15T13:46:50.521Z,988.41
2017-10-15T13:47:49.590Z,988.39
2017-10-15T13:48:49.439Z,988.43
2017-10-15T13:49:49.497Z,988.41
2017-10-15T13:50:49.511Z,988.39
2017-10-15T13:51:49.300Z,988.37
2017-10-15T13:52:49.155Z,988.41
2017-10-15T13:53:49.147Z,988.40
2017-10-15T13:54:49.278Z,988.42
2017-10-15T13:55:51.781Z,988.42
2017-10-15T13:56:48.922Z,988.39
2017-10-15T13:57:50.359Z,988.39
2017-10-15T13:58:49.071Z,988.37
2017-10-15T13:59:49.556Z,988.36
2017-10-15T14:00:49.125Z,988.33
2017-10-15T14:01:48.662Z,988.30
2017-10-15T14:02:49.154Z,988.29
2017-10-15T14:03:49.127Z,988.32
2017-10-15T14:04:49.177Z,988.30
2017-10-15T14:05:48.386Z,988.30
2017-10-15T14:06:48.242Z,988.29
2017-10-15T14:07:48.382Z,988.30
2017-10-15T14:08:48.142Z,988.28
2017-10-15T14:09:48.171Z,988.27
2017-10-15T14:10:48.015Z,988.28
2017-10-15T14:11:48.127Z,988.28
2017-10-15T14:12:48.120Z,988.26
2017-10-15T14:13:47.915Z,988.26
2017-10-15T14:14:47.672Z,988.26
2017-10-15T14:15:47.605Z,988.25
2017-10-15T14:16:47.708Z,988.24
2017-10-15T14:17:47.526Z,988.27
2017-10-15T14:18:47.397Z,988.25
2017-10-15T14:19:47.320Z,988.25
2017-10-15T14:20:47.610Z,988.26
2017-10-15T14:21:47.207Z,988.22
2017-10-15T14:22:47.235Z,988.24
2017-10-15T14:23:47.335Z,988.22
2017-10-15T14:24:47.096Z,988.20
2017-10-15T14:25:47.128Z,988.18
2017-10-15T14:26:46.849Z,988.21
2017-10-15T14:27:46.785Z,988.19
2017-10-15T14:28:46.814Z,988.18
2017-10-15T14:29:46.738Z,988.17
2017-10-15T14:30:53.967Z,988.15
2017-10-15T14:32:39.361Z,988.11
2017-10-15T14:33:39.257Z,988.15
2017-10-15T14:35:32.117Z,988.11
2017-10-15T14:36:31.995Z,988.10
2017-10-15T14:38:24.870Z,988.14
2017-10-15T14:39:24.715Z,988.13
2017-10-15T14:41:17.610Z,988.12
2017-10-15T14:42:17.412Z,988.15
2017-10-15T14:44:10.248Z,988.11
2017-10-15T14:45:10.114Z,988.10
2017-10-15T14:47:03.373Z,988.08
2017-10-15T14:48:03.250Z,988.07
2017-10-15T14:49:57.055Z,988.02
2017-10-15T14:50:56.979Z,988.03
2017-10-15T14:52:49.931Z,988.03
2017-10-15T14:53:49.828Z,988.03
2017-10-15T14:55:42.517Z,988.00
2017-10-15T14:56:42.612Z,988.01
2017-10-15T14:58:35.424Z,987.94
2017-10-15T14:59:35.305Z,987.95
2017-10-15T15:01:28.381Z,987.94
2017-10-15T15:02:28.253Z,987.93
2017-10-15T15:04:21.073Z,987.93
2017-10-15T15:05:21.360Z,987.93
2017-10-15T15:07:14.324Z,987.87
2017-10-15T15:08:13.621Z,987.91
2017-10-15T15:10:06.638Z,987.88
2017-10-15T15:11:06.564Z,987.87
2017-10-15T15:12:59.418Z,987.87
2017-10-15T15:13:59.298Z,987.88
2017-10-15T15:15:52.168Z,987.88
2017-10-15T15:16:52.063Z,987.90
2017-10-15T15:18:44.746Z,987.86
2017-10-15T15:19:44.886Z,987.89
2017-10-15T15:21:37.430Z,987.87
2017-10-15T15:22:37.308Z,987.90
2017-10-15T15:24:30.116Z,987.87
2017-10-15T15:25:30.043Z,987.88
2017-10-15T15:27:23.002Z,987.91
2017-10-15T15:28:22.718Z,987.88
2017-10-15T15:30:15.549Z,987.86
2017-10-15T15:31:15.678Z,987.86
2017-10-15T15:33:08.179Z,987.84
2017-10-15T15:34:08.052Z,987.82
2017-10-15T15:36:00.954Z,987.84
2017-10-15T15:37:00.833Z,987.82
2017-10-15T15:38:53.600Z,987.82
2017-10-15T15:39:53.518Z,987.83
2017-10-15T15:41:46.974Z,987.84
2017-10-15T15:42:47.104Z,987.86
2017-10-15T15:44:39.437Z,987.87